Disclaimer

Please do not use the information listed here in-flight or in-navigation, as they are not provided to us by the airports but are provided by volunteers, so they might be outdated.

Search


Regions


Airport information page

Radio informations:
LANGEN RADAR - 125.05 MHz
LANGEN INFO - 128.95 MHz
INFO - 129.225 MHz

Airport informations:
Latitude: 49° 07' 05.94" N
Longitude: 009° 47' 02.24" E
Elevation: 1311 feet - 400 meters
Operating hours: Remarks
Operating agency: Civil government, landing fees and diplomatic clearance may be required
Timezone: UTC+1(+2DT) - Last Sunday in March to last Sunday in October
Fuel: Jet A1, without icing nhibitor.

100/130 MIL Spec, low lead, aviation gasoline (BLUE)

Runway information:
10/28 - 5053 x 98 feet< - >1540 x 30 meters
10L/28R - 2460 x 98 feet< - >750 x 30 meters

Recent METARs:
EDTY 201450Z 07007KT 9999 BKN023 03/00 Q1006
EDTY 201520Z 07006KT 9999 OVC022 03/00 Q1006
EDTY 201550Z 08005KT 9999 OVC022 03/00 Q1006

Airport on the map: